createdAt,value
2018-07-24T00:00:54.179Z,17.73
2018-07-24T00:03:24.910Z,17.68
2018-07-24T00:05:53.789Z,17.61
2018-07-24T00:08:22.622Z,17.64
2018-07-24T00:10:51.510Z,17.75
2018-07-24T00:13:20.406Z,17.77
2018-07-24T00:15:49.384Z,17.71
2018-07-24T00:18:18.238Z,17.64
2018-07-24T00:20:47.327Z,17.68
2018-07-24T00:23:16.140Z,17.80
2018-07-24T00:25:44.659Z,17.82
2018-07-24T00:28:13.601Z,17.74
2018-07-24T00:30:43.227Z,17.67
2018-07-24T00:33:11.903Z,17.55
2018-07-24T00:35:40.704Z,17.45
2018-07-24T00:38:09.628Z,17.39
2018-07-24T00:40:39.351Z,17.40
2018-07-24T00:43:08.219Z,17.83
2018-07-24T00:45:37.046Z,18.32
2018-07-24T00:48:06.060Z,18.45
2018-07-24T00:50:34.976Z,18.59
2018-07-24T00:53:03.894Z,18.54
2018-07-24T00:55:32.565Z,18.34
2018-07-24T00:58:01.459Z,18.12
2018-07-24T01:00:30.124Z,17.96
2018-07-24T01:02:58.823Z,17.80
2018-07-24T01:05:27.769Z,17.65
2018-07-24T01:07:56.467Z,17.56
2018-07-24T01:10:25.263Z,17.50
2018-07-24T01:12:53.932Z,17.47
2018-07-24T01:15:22.623Z,17.45
2018-07-24T01:17:51.259Z,17.42
2018-07-24T01:20:19.979Z,17.39
2018-07-24T01:22:48.606Z,17.36
2018-07-24T01:25:17.207Z,17.34
2018-07-24T01:27:45.906Z,17.33
2018-07-24T01:30:14.499Z,17.29
2018-07-24T01:32:43.343Z,17.25
2018-07-24T01:35:12.092Z,17.20
2018-07-24T01:37:40.750Z,17.15
2018-07-24T01:40:09.664Z,17.05
2018-07-24T01:42:38.388Z,16.99
2018-07-24T01:45:06.937Z,16.93
2018-07-24T01:47:35.539Z,16.86
2018-07-24T01:50:04.333Z,16.82
2018-07-24T01:52:33.083Z,16.77
2018-07-24T01:55:01.714Z,16.73
2018-07-24T01:57:30.484Z,16.75
2018-07-24T01:59:59.525Z,16.82
2018-07-24T02:02:28.324Z,16.78
2018-07-24T02:04:57.054Z,16.73
2018-07-24T02:07:25.575Z,16.77
2018-07-24T02:09:55.062Z,16.88
2018-07-24T02:12:23.747Z,16.99
2018-07-24T02:14:52.439Z,17.06
2018-07-24T02:17:21.098Z,17.03
2018-07-24T02:19:49.709Z,16.94
2018-07-24T02:22:18.409Z,16.81
2018-07-24T02:24:47.384Z,16.67
2018-07-24T02:27:16.221Z,16.62
2018-07-24T02:29:44.949Z,16.65
2018-07-24T02:32:13.711Z,16.61
2018-07-24T02:34:43.491Z,16.54
2018-07-24T02:37:12.182Z,16.48
2018-07-24T02:39:41.731Z,16.43
2018-07-24T02:42:11.526Z,16.33
2018-07-24T02:44:40.028Z,16.27
2018-07-24T02:47:08.865Z,16.28
2018-07-24T02:49:37.526Z,16.32
2018-07-24T02:52:06.326Z,16.28
2018-07-24T02:54:34.966Z,16.23
2018-07-24T02:57:03.739Z,16.13
2018-07-24T02:59:32.263Z,16.04
2018-07-24T03:02:00.952Z,15.98
2018-07-24T03:04:29.567Z,15.93
2018-07-24T03:06:58.669Z,15.92
2018-07-24T03:09:27.348Z,15.95
2018-07-24T03:11:56.018Z,15.90
2018-07-24T03:14:24.682Z,15.83
2018-07-24T03:16:53.251Z,15.74
2018-07-24T03:19:21.860Z,15.68
2018-07-24T03:21:50.528Z,15.70
2018-07-24T03:24:19.242Z,15.72
2018-07-24T03:26:48.247Z,15.68
2018-07-24T03:29:16.936Z,15.61
2018-07-24T03:31:46.217Z,15.62
2018-07-24T03:34:14.885Z,15.65
2018-07-24T03:36:43.552Z,15.70
2018-07-24T03:39:13.264Z,15.74
2018-07-24T03:41:42.440Z,15.70
2018-07-24T03:44:11.480Z,15.67
2018-07-24T03:46:40.046Z,15.66
2018-07-24T03:49:08.677Z,15.63
2018-07-24T03:51:37.427Z,15.61
2018-07-24T03:54:05.954Z,15.61
2018-07-24T03:56:34.512Z,15.68
2018-07-24T03:59:03.252Z,15.74
2018-07-24T04:01:32.453Z,15.75
2018-07-24T04:04:01.308Z,15.80
2018-07-24T04:06:29.982Z,15.87
2018-07-24T04:08:58.598Z,16.02
2018-07-24T04:11:27.351Z,16.11
2018-07-24T04:13:55.970Z,16.20
2018-07-24T04:16:24.532Z,16.29
2018-07-24T04:18:53.255Z,16.42
2018-07-24T04:21:22.151Z,16.47
2018-07-24T04:23:50.837Z,16.49
2018-07-24T04:26:19.447Z,16.55
2018-07-24T04:28:48.051Z,16.60
2018-07-24T04:31:16.839Z,16.64
2018-07-24T04:33:45.522Z,16.69
2018-07-24T04:36:14.140Z,16.74
2018-07-24T04:38:42.857Z,16.79
2018-07-24T04:41:11.438Z,16.87
2018-07-24T04:43:40.254Z,16.97
2018-07-24T04:46:08.885Z,17.09
2018-07-24T04:48:37.573Z,17.20
2018-07-24T04:51:06.411Z,17.27
2018-07-24T04:53:35.007Z,17.34
2018-07-24T04:56:03.790Z,17.37
2018-07-24T04:58:32.540Z,17.42
2018-07-24T05:01:01.251Z,17.47
2018-07-24T05:03:29.840Z,17.56
2018-07-24T05:05:58.546Z,17.65
2018-07-24T05:08:27.259Z,17.74
2018-07-24T05:10:55.907Z,17.81
2018-07-24T05:13:24.572Z,17.91
2018-07-24T05:15:53.289Z,18.02
2018-07-24T05:18:22.131Z,18.12
2018-07-24T05:20:50.850Z,18.21
2018-07-24T05:23:19.588Z,18.34
2018-07-24T05:25:48.338Z,18.49
2018-07-24T05:28:16.961Z,18.64
2018-07-24T05:30:45.721Z,18.76
2018-07-24T05:33:14.558Z,18.87
2018-07-24T05:35:43.097Z,19.00
2018-07-24T05:38:11.831Z,19.15
2018-07-24T05:40:40.539Z,19.29
2018-07-24T05:43:09.225Z,19.50
2018-07-24T05:45:37.962Z,19.68
2018-07-24T05:48:06.611Z,19.87
2018-07-24T05:50:35.315Z,20.06
2018-07-24T05:53:04.012Z,20.28
2018-07-24T05:55:32.609Z,20.43
2018-07-24T05:58:01.318Z,20.54
2018-07-24T06:00:29.931Z,20.67
2018-07-24T06:02:58.700Z,20.79
2018-07-24T06:05:27.597Z,20.90
2018-07-24T06:07:56.560Z,21.03
2018-07-24T06:10:25.395Z,21.15
2018-07-24T06:13:02.369Z,21.24
2018-07-24T06:15:31.003Z,21.37
2018-07-24T06:17:59.848Z,21.48
2018-07-24T06:20:28.417Z,21.64
2018-07-24T06:22:57.144Z,21.78
2018-07-24T06:25:25.740Z,21.95
2018-07-24T06:27:54.866Z,22.10
2018-07-24T06:30:23.492Z,22.22
2018-07-24T06:33:01.733Z,22.35
2018-07-24T06:35:30.740Z,22.57
2018-07-24T06:37:59.544Z,22.72
2018-07-24T06:40:28.186Z,22.84
2018-07-24T06:42:58.064Z,22.95
2018-07-24T06:45:26.816Z,23.02
2018-07-24T06:47:55.463Z,23.16
2018-07-24T06:50:24.134Z,23.29
2018-07-24T06:53:05.282Z,23.44
2018-07-24T06:55:34.032Z,23.55
2018-07-24T06:58:03.014Z,23.71
2018-07-24T07:00:31.796Z,23.83
2018-07-24T07:03:01.179Z,23.95
2018-07-24T07:05:29.905Z,24.05
2018-07-24T07:07:58.751Z,24.16
2018-07-24T07:10:27.411Z,24.24
2018-07-24T07:12:57.151Z,24.36
2018-07-24T07:15:25.741Z,24.48
2018-07-24T07:17:54.380Z,24.54
2018-07-24T07:20:23.054Z,24.69
2018-07-24T07:22:59.359Z,24.85
2018-07-24T07:25:29.069Z,24.98
2018-07-24T07:27:57.757Z,25.11
2018-07-24T07:30:26.369Z,25.25
2018-07-24T07:32:55.066Z,25.36
2018-07-24T07:35:23.675Z,25.38
2018-07-24T07:37:52.328Z,25.45
2018-07-24T07:40:21.024Z,25.50
2018-07-24T07:42:49.673Z,25.55
2018-07-24T07:45:28.340Z,25.61
2018-07-24T07:48:02.250Z,25.67
2018-07-24T07:50:31.900Z,25.84
2018-07-24T07:53:00.564Z,25.96
2018-07-24T07:55:30.299Z,26.00
2018-07-24T07:58:04.150Z,26.04
2018-07-24T08:00:35.662Z,26.09
2018-07-24T08:03:04.530Z,26.15
2018-07-24T08:05:45.386Z,26.27
2018-07-24T08:08:19.448Z,26.38
2018-07-24T08:10:48.289Z,26.42
2018-07-24T08:13:22.907Z,26.53
2018-07-24T08:15:56.423Z,26.63
2018-07-24T08:18:30.192Z,26.73
2018-07-24T08:20:59.046Z,26.79
2018-07-24T08:23:27.839Z,26.90
2018-07-24T08:25:56.463Z,26.97
2018-07-24T08:28:25.324Z,27.01
2018-07-24T08:30:54.200Z,27.09
2018-07-24T08:33:22.889Z,27.23
2018-07-24T08:36:12.160Z,27.29
2018-07-24T08:38:40.979Z,27.39
2018-07-24T08:41:09.754Z,27.53
2018-07-24T08:43:38.567Z,27.58
2018-07-24T08:46:07.295Z,27.64
2018-07-24T08:48:36.161Z,27.76
2018-07-24T08:51:05.290Z,27.87
2018-07-24T08:53:34.050Z,27.99
2018-07-24T08:56:03.796Z,28.05
2018-07-24T08:58:32.464Z,28.00
2018-07-24T09:01:01.121Z,28.05
2018-07-24T09:03:30.033Z,28.16
2018-07-24T09:06:16.635Z,28.27
2018-07-24T09:08:45.379Z,28.42
2018-07-24T09:11:14.102Z,28.58
2018-07-24T09:13:42.843Z,28.68
2018-07-24T09:16:20.644Z,28.65
2018-07-24T09:18:49.334Z,28.65
2018-07-24T09:21:18.104Z,28.61
2018-07-24T09:23:46.863Z,28.66
2018-07-24T09:26:15.859Z,28.68
2018-07-24T09:28:44.505Z,28.67
2018-07-24T09:31:13.182Z,28.75
2018-07-24T09:33:41.898Z,28.95
2018-07-24T09:36:12.007Z,29.04
2018-07-24T09:38:40.715Z,29.19
2018-07-24T09:41:09.395Z,29.28
2018-07-24T09:43:38.212Z,29.38
2018-07-24T09:46:28.164Z,29.43
2018-07-24T09:48:56.861Z,29.44
2018-07-24T09:51:25.493Z,29.54
2018-07-24T09:53:54.558Z,29.68
2018-07-24T09:56:27.300Z,29.76
2018-07-24T09:58:55.969Z,29.65
2018-07-24T10:01:30.209Z,29.66
2018-07-24T10:03:59.284Z,29.65
2018-07-24T10:06:30.369Z,29.62
2018-07-24T10:08:59.083Z,29.72
2018-07-24T10:11:28.578Z,29.87
2018-07-24T10:13:57.299Z,29.97
2018-07-24T10:16:39.771Z,30.10
2018-07-24T10:19:08.393Z,30.17
2018-07-24T10:21:37.226Z,30.41
2018-07-24T10:24:06.050Z,30.52
2018-07-24T10:26:41.940Z,30.50
2018-07-24T10:29:10.641Z,30.58
2018-07-24T10:31:39.417Z,30.73
2018-07-24T10:34:08.160Z,30.79
2018-07-24T10:36:36.860Z,30.84
2018-07-24T10:39:09.577Z,30.79
2018-07-24T10:41:38.337Z,30.82
2018-07-24T10:44:07.109Z,30.79
2018-07-24T10:46:44.012Z,30.70
2018-07-24T10:49:12.674Z,30.62
2018-07-24T10:51:41.297Z,30.69
2018-07-24T10:54:10.317Z,30.95
2018-07-24T10:56:44.819Z,31.10
2018-07-24T10:59:14.174Z,31.15
2018-07-24T11:01:43.087Z,31.24
2018-07-24T11:04:11.743Z,31.34
2018-07-24T11:07:07.161Z,31.41
2018-07-24T11:09:35.890Z,31.52
2018-07-24T11:12:04.635Z,31.79
2018-07-24T11:14:36.091Z,32.12
2018-07-24T11:17:08.222Z,32.30
2018-07-24T11:19:36.849Z,32.39
2018-07-24T11:22:05.729Z,32.47
2018-07-24T11:24:34.281Z,32.61
2018-07-24T11:27:04.970Z,32.78
2018-07-24T11:29:33.610Z,32.91
2018-07-24T11:32:02.304Z,32.84
2018-07-24T11:34:31.868Z,32.75
2018-07-24T11:37:02.703Z,32.54
2018-07-24T11:39:31.303Z,32.45
2018-07-24T11:41:59.948Z,32.50
2018-07-24T11:44:28.701Z,32.66
2018-07-24T11:46:59.485Z,32.69
2018-07-24T11:49:28.239Z,32.61
2018-07-24T11:52:00.850Z,32.38
2018-07-24T11:54:29.654Z,32.44
2018-07-24T11:57:08.260Z,32.40
2018-07-24T11:59:36.925Z,32.35
2018-07-24T12:02:05.774Z,32.45
2018-07-24T12:04:34.490Z,32.92
2018-07-24T12:07:17.059Z,33.47
2018-07-24T12:09:45.767Z,33.96
2018-07-24T12:12:14.502Z,34.03
2018-07-24T12:14:43.126Z,34.15
2018-07-24T12:17:15.181Z,34.33
2018-07-24T12:19:43.877Z,34.38
2018-07-24T12:22:12.603Z,34.47
2018-07-24T12:24:41.322Z,34.40
2018-07-24T12:27:12.078Z,34.65
2018-07-24T12:29:40.696Z,35.09
2018-07-24T12:32:09.343Z,35.34
2018-07-24T12:34:38.019Z,35.26
2018-07-24T12:37:14.286Z,35.38
2018-07-24T12:39:43.466Z,35.55
2018-07-24T12:42:12.541Z,35.73
2018-07-24T12:44:41.268Z,36.06
2018-07-24T12:47:24.500Z,36.58
2018-07-24T12:49:53.277Z,37.90
2018-07-24T12:52:22.999Z,40.37
2018-07-24T12:54:52.155Z,42.70
2018-07-24T12:57:23.592Z,44.36
2018-07-24T12:59:52.914Z,45.26
2018-07-24T13:02:21.930Z,45.89
2018-07-24T13:04:52.031Z,46.12
2018-07-24T13:07:35.923Z,46.47
2018-07-24T13:10:05.950Z,46.80
2018-07-24T13:12:34.538Z,47.17
2018-07-24T13:15:04.139Z,47.85
2018-07-24T13:17:36.524Z,48.30
2018-07-24T13:20:07.839Z,48.87
2018-07-24T13:22:36.623Z,49.23
2018-07-24T13:25:05.417Z,49.30
2018-07-24T13:27:48.079Z,49.78
2018-07-24T13:30:16.813Z,50.21
2018-07-24T13:32:45.439Z,49.95
2018-07-24T13:35:14.759Z,49.17
2018-07-24T13:37:46.119Z,48.99
2018-07-24T13:40:15.125Z,49.03
2018-07-24T13:42:44.148Z,49.29
2018-07-24T13:45:12.900Z,49.78
2018-07-24T13:47:43.593Z,48.81
2018-07-24T13:50:12.242Z,47.73
2018-07-24T13:52:40.875Z,46.81
2018-07-24T13:55:09.877Z,46.90
2018-07-24T13:57:46.632Z,47.47
2018-07-24T14:00:15.571Z,48.88
2018-07-24T14:02:44.173Z,49.77
2018-07-24T14:05:13.606Z,50.38
2018-07-24T14:07:51.561Z,50.59
2018-07-24T14:10:20.992Z,50.37
2018-07-24T14:12:51.262Z,51.19
2018-07-24T14:15:20.193Z,51.76
2018-07-24T14:17:56.795Z,51.54
2018-07-24T14:20:26.448Z,50.78
2018-07-24T14:23:01.312Z,50.49
2018-07-24T14:25:30.098Z,50.46
2018-07-24T14:28:02.744Z,49.89
2018-07-24T14:30:31.937Z,47.31
2018-07-24T14:33:00.667Z,45.58
2018-07-24T14:35:30.104Z,45.58
2018-07-24T14:38:06.406Z,46.55
2018-07-24T14:40:35.446Z,47.13
2018-07-24T14:43:04.097Z,46.64
2018-07-24T14:45:33.365Z,47.38
2018-07-24T14:48:02.084Z,47.43
2018-07-24T14:50:30.765Z,47.48
2018-07-24T14:52:59.943Z,47.48
2018-07-24T14:55:29.341Z,47.48
2018-07-24T14:58:06.861Z,48.75
2018-07-24T15:00:35.955Z,47.54
2018-07-24T15:03:05.355Z,46.07
2018-07-24T15:05:34.338Z,46.71
2018-07-24T15:08:10.801Z,47.97
2018-07-24T15:10:40.909Z,49.13
2018-07-24T15:13:09.554Z,49.47
2018-07-24T15:15:38.268Z,48.69
2018-07-24T15:18:11.763Z,45.80
2018-07-24T15:20:41.414Z,45.18
2018-07-24T15:23:10.769Z,46.48
2018-07-24T15:25:39.440Z,47.99
2018-07-24T15:28:09.087Z,48.05
2018-07-24T15:30:39.021Z,47.61
2018-07-24T15:33:08.049Z,46.78
2018-07-24T15:35:37.019Z,47.74
2018-07-24T15:38:13.456Z,48.28
2018-07-24T15:40:43.034Z,49.21
2018-07-24T15:43:12.533Z,49.99
2018-07-24T15:45:41.613Z,50.63
2018-07-24T15:48:17.233Z,50.91
2018-07-24T15:50:46.231Z,51.21
2018-07-24T15:53:15.291Z,51.31
2018-07-24T15:55:44.498Z,51.62
2018-07-24T15:58:52.268Z,50.95
2018-07-24T16:01:21.407Z,51.08
2018-07-24T16:03:50.356Z,50.83
2018-07-24T16:06:19.788Z,50.69
2018-07-24T16:08:50.685Z,50.83
2018-07-24T16:11:19.457Z,51.08
2018-07-24T16:13:48.216Z,51.29
2018-07-24T16:16:16.908Z,51.17
2018-07-24T16:18:46.591Z,51.12
2018-07-24T16:21:15.264Z,51.31
2018-07-24T16:23:43.844Z,51.28
2018-07-24T16:26:12.598Z,50.92
2018-07-24T16:28:45.545Z,50.67
2018-07-24T16:31:14.190Z,50.56
2018-07-24T16:33:42.768Z,50.35
2018-07-24T16:36:11.530Z,49.20
2018-07-24T16:38:40.368Z,48.71
2018-07-24T16:41:08.947Z,47.30
2018-07-24T16:43:37.507Z,46.41
2018-07-24T16:46:06.379Z,46.71
2018-07-24T16:48:42.272Z,46.86
2018-07-24T16:51:10.908Z,46.75
2018-07-24T16:53:39.605Z,46.90
2018-07-24T16:56:08.348Z,47.23
2018-07-24T16:58:53.602Z,47.51
2018-07-24T17:01:23.775Z,47.44
2018-07-24T17:03:53.351Z,47.51
2018-07-24T17:06:22.021Z,47.07
2018-07-24T17:08:50.706Z,46.93
2018-07-24T17:11:19.422Z,46.77
2018-07-24T17:13:48.062Z,46.72
2018-07-24T17:16:16.895Z,46.59
2018-07-24T17:18:45.515Z,46.26
2018-07-24T17:21:14.165Z,45.94
2018-07-24T17:23:42.920Z,45.46
2018-07-24T17:26:12.669Z,45.07
2018-07-24T17:28:42.298Z,44.84
2018-07-24T17:31:11.015Z,44.44
2018-07-24T17:33:40.444Z,44.05
2018-07-24T17:36:09.096Z,43.47
2018-07-24T17:38:37.838Z,43.11
2018-07-24T17:41:06.647Z,42.71
2018-07-24T17:43:35.310Z,42.35
2018-07-24T17:46:04.161Z,41.86
2018-07-24T17:48:33.106Z,41.39
2018-07-24T17:51:01.719Z,40.99
2018-07-24T17:53:30.417Z,40.50
2018-07-24T17:55:59.077Z,39.94
2018-07-24T17:58:27.712Z,39.37
2018-07-24T18:00:56.456Z,39.02
2018-07-24T18:03:25.257Z,38.45
2018-07-24T18:05:53.885Z,37.89
2018-07-24T18:08:22.590Z,37.26
2018-07-24T18:10:51.443Z,36.83
2018-07-24T18:13:20.180Z,36.44
2018-07-24T18:15:48.969Z,35.97
2018-07-24T18:18:17.599Z,35.54
2018-07-24T18:20:47.273Z,35.13
2018-07-24T18:23:15.983Z,34.55
2018-07-24T18:25:44.878Z,34.05
2018-07-24T18:28:13.771Z,33.51
2018-07-24T18:30:46.015Z,33.02
2018-07-24T18:33:14.812Z,32.68
2018-07-24T18:35:43.438Z,32.43
2018-07-24T18:38:12.160Z,32.26
2018-07-24T18:40:40.895Z,31.91
2018-07-24T18:43:09.769Z,31.41
2018-07-24T18:45:38.528Z,30.84
2018-07-24T18:48:07.311Z,30.30
2018-07-24T18:50:36.030Z,29.80
2018-07-24T18:53:04.787Z,29.31
2018-07-24T18:55:33.349Z,28.86
2018-07-24T18:58:02.106Z,28.46
2018-07-24T19:00:30.731Z,28.01
2018-07-24T19:02:59.499Z,27.61
2018-07-24T19:05:28.422Z,27.26
2018-07-24T19:07:57.154Z,26.94
2018-07-24T19:10:25.777Z,26.75
2018-07-24T19:12:54.547Z,26.53
2018-07-24T19:15:23.146Z,26.27
2018-07-24T19:17:51.797Z,26.02
2018-07-24T19:20:20.417Z,25.77
2018-07-24T19:22:49.118Z,25.58
2018-07-24T19:25:17.853Z,25.42
2018-07-24T19:27:46.570Z,25.21
2018-07-24T19:30:15.130Z,25.07
2018-07-24T19:32:43.826Z,24.91
2018-07-24T19:35:12.589Z,24.70
2018-07-24T19:37:41.308Z,24.51
2018-07-24T19:40:10.125Z,24.38
2018-07-24T19:42:39.010Z,24.30
2018-07-24T19:45:08.200Z,24.24
2018-07-24T19:47:37.027Z,24.19
2018-07-24T19:50:06.007Z,24.14
2018-07-24T19:52:34.650Z,24.12
2018-07-24T19:55:03.322Z,24.08
2018-07-24T19:57:32.033Z,24.03
2018-07-24T20:00:00.718Z,23.98
2018-07-24T20:02:29.460Z,23.94
2018-07-24T20:04:58.136Z,23.90
2018-07-24T20:07:26.895Z,23.78
2018-07-24T20:09:55.591Z,23.66
2018-07-24T20:12:24.389Z,23.55
2018-07-24T20:14:53.144Z,23.42
2018-07-24T20:17:21.779Z,23.31
2018-07-24T20:19:50.500Z,23.25
2018-07-24T20:22:19.143Z,23.19
2018-07-24T20:24:47.869Z,23.15
2018-07-24T20:27:16.535Z,22.99
2018-07-24T20:29:45.308Z,22.82
2018-07-24T20:32:13.976Z,22.70
2018-07-24T20:34:42.709Z,22.57
2018-07-24T20:37:11.456Z,22.47
2018-07-24T20:39:40.173Z,22.36
2018-07-24T20:42:08.893Z,22.29
2018-07-24T20:44:37.564Z,22.24
2018-07-24T20:47:06.344Z,22.18
2018-07-24T20:49:34.975Z,22.12
2018-07-24T20:52:03.714Z,22.16
2018-07-24T20:54:32.441Z,22.12
2018-07-24T20:57:01.195Z,22.07
2018-07-24T20:59:29.872Z,22.06
2018-07-24T21:01:58.815Z,22.08
2018-07-24T21:04:27.544Z,21.98
2018-07-24T21:06:56.195Z,21.88
2018-07-24T21:09:24.915Z,21.84
2018-07-24T21:11:53.568Z,21.97
2018-07-24T21:14:22.254Z,22.23
2018-07-24T21:16:50.975Z,22.40
2018-07-24T21:19:19.647Z,22.38
2018-07-24T21:21:48.207Z,22.29
2018-07-24T21:24:17.017Z,22.16
2018-07-24T21:26:45.618Z,22.03
2018-07-24T21:29:14.240Z,21.93
2018-07-24T21:31:43.129Z,21.84
2018-07-24T21:34:11.867Z,21.81
2018-07-24T21:36:40.815Z,21.72
2018-07-24T21:39:10.894Z,21.72
2018-07-24T21:41:39.665Z,21.75
2018-07-24T21:44:08.470Z,21.91
2018-07-24T21:46:37.170Z,22.14
2018-07-24T21:49:06.001Z,22.46
2018-07-24T21:51:34.614Z,22.77
2018-07-24T21:54:03.284Z,22.93
2018-07-24T21:56:31.966Z,22.98
2018-07-24T21:59:00.878Z,22.99
2018-07-24T22:01:29.572Z,23.04
2018-07-24T22:03:58.221Z,23.03
2018-07-24T22:06:26.932Z,23.01
2018-07-24T22:08:55.817Z,22.97
2018-07-24T22:11:24.316Z,22.95
2018-07-24T22:13:52.929Z,22.95
2018-07-24T22:16:21.734Z,23.04
2018-07-24T22:18:50.541Z,23.49
2018-07-24T22:21:19.426Z,24.11
2018-07-24T22:23:48.042Z,24.67
2018-07-24T22:26:16.681Z,25.13
2018-07-24T22:28:45.412Z,25.41
2018-07-24T22:31:13.923Z,25.53
2018-07-24T22:33:42.599Z,25.61
2018-07-24T22:36:11.384Z,25.62
2018-07-24T22:38:40.334Z,25.52
2018-07-24T22:41:09.081Z,25.34
2018-07-24T22:43:37.642Z,25.22
2018-07-24T22:46:06.204Z,25.15
2018-07-24T22:48:34.907Z,25.36
2018-07-24T22:51:03.721Z,25.58
2018-07-24T22:53:32.304Z,25.62
2018-07-24T22:56:01.066Z,25.69
2018-07-24T22:58:29.604Z,25.68
2018-07-24T23:00:58.200Z,25.63
2018-07-24T23:03:26.867Z,25.64
2018-07-24T23:05:55.509Z,25.56
2018-07-24T23:08:24.124Z,25.55
2018-07-24T23:10:52.882Z,25.54
2018-07-24T23:13:21.550Z,25.46
2018-07-24T23:15:50.211Z,25.38
2018-07-24T23:18:18.735Z,25.34
2018-07-24T23:20:47.535Z,25.24
2018-07-24T23:23:16.263Z,25.17
2018-07-24T23:25:44.875Z,25.16
2018-07-24T23:28:13.660Z,25.10
2018-07-24T23:30:42.380Z,25.04
2018-07-24T23:33:11.008Z,24.95
2018-07-24T23:35:39.726Z,24.79
2018-07-24T23:38:08.423Z,24.71
2018-07-24T23:40:37.185Z,24.67
2018-07-24T23:43:05.931Z,24.60
2018-07-24T23:45:34.629Z,24.62
2018-07-24T23:48:03.276Z,24.61
2018-07-24T23:50:33.034Z,24.66
2018-07-24T23:53:01.571Z,24.69
2018-07-24T23:55:30.286Z,24.59
2018-07-24T23:57:58.846Z,24.51
